Time;durP1;ratioP1;P1;durP2;ratioP2;P2;SDS_P1;SDS_P2;PMS_P1;PMS_P2;Temp;Humidity;BMP_temperature;BMP_pressure;BME280_temperature;BME280_humidity;BME280_pressure;Samples;Min_cycle;Max_cycle;Signal;HPM_P1;HPM_P2
2021/09/18 00:00:39;;;;;;;27.30;17.40;;;;;;;20.40;100.00;100798.97;5049986;28;20622;-70
2021/09/18 00:03:05;;;;;;;24.90;17.67;;;;;;;20.29;100.00;100788.63;5040536;28;20168;-70
2021/09/18 00:05:30;;;;;;;22.90;17.00;;;;;;;20.33;100.00;100774.81;5035097;28;20166;-72
2021/09/18 00:07:56;;;;;;;25.93;18.23;;;;;;;20.39;100.00;100775.94;5039817;28;20506;-69
2021/09/18 00:10:21;;;;;;;25.90;18.40;;;;;;;20.40;100.00;100772.28;5049155;28;20166;-71
2021/09/18 00:12:47;;;;;;;32.67;19.20;;;;;;;20.44;100.00;100762.97;5044511;28;20164;-71
2021/09/18 00:15:13;;;;;;;30.50;19.10;;;;;;;20.47;100.00;100750.13;5049164;28;20177;-70
2021/09/18 00:17:38;;;;;;;25.33;19.30;;;;;;;20.43;100.00;100746.09;5038030;28;20578;-72
2021/09/18 00:20:05;;;;;;;26.07;18.77;;;;;;;20.43;100.00;100738.09;5030753;28;20585;-72
2021/09/18 00:22:30;;;;;;;26.07;20.20;;;;;;;20.46;100.00;100739.63;5044548;28;20189;-71
2021/09/18 00:24:57;;;;;;;28.97;21.10;;;;;;;20.48;100.00;100748.31;5035101;28;20562;-70
2021/09/18 00:27:22;;;;;;;37.73;20.77;;;;;;;20.52;100.00;100754.97;5032686;28;20331;-71
2021/09/18 00:29:48;;;;;;;44.00;21.43;;;;;;;20.49;100.00;100745.47;5040375;28;20919;-75
2021/09/18 00:32:13;;;;;;;37.30;21.70;;;;;;;20.48;100.00;100748.31;5030954;28;20427;-74
2021/09/18 00:34:39;;;;;;;31.13;23.40;;;;;;;20.57;100.00;100749.16;5042381;28;20184;-71
2021/09/18 00:37:05;;;;;;;32.77;21.43;;;;;;;20.52;100.00;100752.31;5049182;28;20256;-71
2021/09/18 00:39:30;;;;;;;29.93;22.20;;;;;;;20.52;100.00;100749.63;5049713;28;20226;-70
2021/09/18 00:41:56;;;;;;;37.87;22.20;;;;;;;20.61;100.00;100745.97;5049515;28;20172;-70
2021/09/18 00:44:21;;;;;;;31.20;22.43;;;;;;;20.62;100.00;100738.78;5046241;28;20169;-72
2021/09/18 00:46:50;;;;;;;29.03;21.73;;;;;;;20.62;100.00;100734.28;5049489;28;20168;-72
2021/09/18 00:49:16;;;;;;;30.47;20.83;;;;;;;20.58;100.00;100732.13;5049148;28;20624;-73
2021/09/18 00:51:42;;;;;;;28.27;18.93;;;;;;;20.60;100.00;100730.13;5048923;28;20411;-71
2021/09/18 00:54:09;;;;;;;23.60;18.20;;;;;;;20.55;100.00;100722.59;5049424;28;20475;-72
2021/09/18 00:56:35;;;;;;;21.37;17.30;;;;;;;20.53;100.00;100716.59;5029686;28;20225;-72
2021/09/18 00:59:01;;;;;;;23.63;17.70;;;;;;;20.55;100.00;100727.09;5030448;28;20443;-70
2021/09/18 01:01:26;;;;;;;22.17;17.90;;;;;;;20.46;100.00;100731.63;5047733;28;20435;-69
2021/09/18 01:03:52;;;;;;;21.90;16.67;;;;;;;20.41;100.00;100726.75;5049048;28;20537;-69
2021/09/18 01:06:19;;;;;;;28.50;17.40;;;;;;;20.38;100.00;100723.56;5048176;28;20184;-71
2021/09/18 01:08:51;;;;;;;22.20;16.70;;;;;;;20.43;100.00;100722.09;5077872;28;20235;-73
2021/09/18 01:11:17;;;;;;;27.57;17.90;;;;;;;20.40;100.00;100725.09;5033870;28;20407;-72
2021/09/18 01:13:43;;;;;;;26.27;19.30;;;;;;;20.39;100.00;100720.72;5049433;28;20925;-70
2021/09/18 01:16:08;;;;;;;24.67;17.73;;;;;;;20.35;100.00;100723.91;5050307;28;20307;-72
2021/09/18 01:18:34;;;;;;;22.57;19.30;;;;;;;20.31;100.00;100720.72;5048348;28;20262;-72
2021/09/18 01:20:59;;;;;;;28.60;18.53;;;;;;;20.25;100.00;100721.38;5043685;28;20710;-73
2021/09/18 01:23:25;;;;;;;24.87;17.43;;;;;;;20.30;100.00;100723.56;5048705;28;20922;-71
2021/09/18 01:25:51;;;;;;;22.53;18.47;;;;;;;20.29;100.00;100722.75;5050064;28;20176;-71
2021/09/18 01:28:17;;;;;;;31.43;19.30;;;;;;;20.28;100.00;100722.91;5048300;28;20180;-71
2021/09/18 01:30:43;;;;;;;24.30;19.40;;;;;;;20.22;100.00;100717.22;5049727;28;20173;-71
2021/09/18 01:33:09;;;;;;;26.63;20.27;;;;;;;20.13;100.00;100720.06;5050440;28;20936;-72
2021/09/18 01:35:36;;;;;;;27.03;21.80;;;;;;;20.14;100.00;100709.22;5046325;28;20447;-73
2021/09/18 01:38:03;;;;;;;22.97;19.47;;;;;;;20.07;100.00;100718.88;5030105;28;20993;-72
2021/09/18 01:40:33;;;;;;;24.93;19.73;;;;;;;20.13;100.00;100715.56;5045483;28;20976;-71
2021/09/18 01:42:59;;;;;;;29.30;19.57;;;;;;;20.11;100.00;100717.56;5049014;28;20430;-73
2021/09/18 01:45:25;;;;;;;28.23;21.83;;;;;;;20.16;100.00;100717.88;5049853;28;20439;-71
2021/09/18 01:47:56;;;;;;;28.67;20.87;;;;;;;20.17;100.00;100722.22;5035267;28;20503;-71
2021/09/18 01:50:28;;;;;;;33.77;25.17;;;;;;;20.19;100.00;100712.22;5035864;28;20911;-71
2021/09/18 01:53:04;;;;;;;30.17;24.03;;;;;;;20.26;100.00;100712.41;5049305;28;20415;-72
2021/09/18 01:55:31;;;;;;;33.03;23.57;;;;;;;20.29;100.00;100711.22;5050785;28;20414;-73
2021/09/18 01:57:58;;;;;;;37.27;24.73;;;;;;;20.31;100.00;100703.88;5049802;28;20494;-73
2021/09/18 02:00:25;;;;;;;34.40;23.57;;;;;;;20.33;100.00;100716.09;5030029;28;20773;-71
2021/09/18 02:02:50;;;;;;;31.73;22.97;;;;;;;20.25;100.00;100716.06;5037992;28;20412;-71
2021/09/18 02:05:19;;;;;;;29.97;22.80;;;;;;;-143.90;100.00;58478.06;5028578;28;20715;-73
2021/09/18 02:07:45;;;;;;;31.20;23.07;;;;;;;-143.90;100.00;58478.06;5029404;28;20173;-74
2021/09/18 02:10:13;;;;;;;33.60;23.63;;;;;;;-143.90;100.00;58478.06;5029417;28;20408;-72
2021/09/18 02:12:39;;;;;;;29.80;23.70;;;;;;;-143.90;100.00;58478.06;5032819;28;20242;-74
2021/09/18 02:15:06;;;;;;;30.60;24.37;;;;;;;-143.90;100.00;58478.06;5036390;28;20505;-72
2021/09/18 02:17:31;;;;;;;34.00;27.63;;;;;;;-143.90;100.00;58478.06;5047513;28;20197;-74
2021/09/18 02:19:57;;;;;;;35.63;24.80;;;;;;;-143.90;100.00;58478.06;5047329;28;20419;-71
2021/09/18 02:22:22;;;;;;;39.33;26.40;;;;;;;-143.90;100.00;58478.06;5048515;28;20272;-72
2021/09/18 02:24:48;;;;;;;32.30;24.57;;;;;;;-143.90;100.00;58478.06;5047363;28;20180;-73
2021/09/18 02:27:13;;;;;;;43.13;26.00;;;;;;;-143.90;100.00;58478.06;5046898;28;20322;-69
2021/09/18 02:29:39;;;;;;;41.27;30.20;;;;;;;-143.90;100.00;58478.06;5029505;28;20209;-73
2021/09/18 02:32:05;;;;;;;40.37;29.00;;;;;;;-143.90;100.00;58478.06;5028037;28;20272;-72
2021/09/18 02:34:31;;;;;;;40.33;28.03;;;;;;;-143.90;100.00;58478.06;5033882;28;20166;-72
2021/09/18 02:36:56;;;;;;;44.73;31.93;;;;;;;-143.90;100.00;58478.06;5033210;28;20644;-72
2021/09/18 02:39:22;;;;;;;44.57;30.73;;;;;;;-143.90;100.00;58478.06;5048926;28;20279;-70
2021/09/18 02:41:47;;;;;;;54.57;35.60;;;;;;;-143.90;100.00;58478.06;5041693;28;20695;-72
2021/09/18 02:44:13;;;;;;;50.87;34.13;;;;;;;-143.90;100.00;58478.06;5029650;28;20210;-72
2021/09/18 02:46:38;;;;;;;53.13;35.40;;;;;;;-143.90;100.00;58478.06;5029743;28;20552;-72
2021/09/18 02:49:04;;;;;;;54.70;35.37;;;;;;;-143.90;100.00;58478.06;5029359;28;20232;-72
2021/09/18 02:51:29;;;;;;;51.53;36.23;;;;;;;-143.90;100.00;58478.06;5040209;28;20205;-72
2021/09/18 02:53:54;;;;;;;49.77;34.23;;;;;;;-143.90;100.00;58478.06;5039233;28;20512;-73
2021/09/18 02:56:20;;;;;;;47.43;33.93;;;;;;;-143.90;100.00;58478.06;5047513;28;20240;-73
2021/09/18 02:58:45;;;;;;;48.97;32.33;;;;;;;-143.90;100.00;58478.06;5049291;28;20165;-72
2021/09/18 03:01:11;;;;;;;44.70;30.77;;;;;;;-143.90;100.00;58478.06;5034012;28;20525;-72
2021/09/18 03:03:36;;;;;;;38.93;28.43;;;;;;;-143.90;100.00;58478.06;5032986;28;20208;-71
2021/09/18 03:06:02;;;;;;;41.63;27.30;;;;;;;-143.90;100.00;58478.06;5032779;28;20173;-71
2021/09/18 03:08:27;;;;;;;39.23;28.17;;;;;;;-143.90;100.00;58478.06;5032674;28;20520;-71
2021/09/18 03:10:53;;;;;;;35.97;27.13;;;;;;;-143.90;100.00;58478.06;5035630;28;20243;-72
2021/09/18 03:13:18;;;;;;;39.73;29.00;;;;;;;-143.90;100.00;58478.06;5035120;28;20168;-71
2021/09/18 03:15:44;;;;;;;38.10;28.60;;;;;;;-143.90;100.00;58478.06;5034019;28;20170;-72
2021/09/18 03:18:10;;;;;;;46.47;29.93;;;;;;;-143.90;100.00;58478.06;5038822;28;20201;-72
2021/09/18 03:20:35;;;;;;;45.27;29.00;;;;;;;-143.90;100.00;58478.06;5052990;28;20212;-72
2021/09/18 03:23:01;;;;;;;46.17;29.40;;;;;;;-143.90;100.00;58478.06;5052876;28;20554;-73
2021/09/18 03:25:27;;;;;;;46.63;30.53;;;;;;;-143.90;100.00;58478.06;5032319;28;20523;-71
2021/09/18 03:27:52;;;;;;;47.30;29.40;;;;;;;-143.90;100.00;58478.06;5031965;28;20204;-75
2021/09/18 03:30:18;;;;;;;51.77;32.47;;;;;;;-143.90;100.00;58478.06;5033151;28;20170;-73
2021/09/18 03:32:43;;;;;;;47.80;30.60;;;;;;;-143.90;100.00;58478.06;5049839;28;20216;-71
2021/09/18 03:35:09;;;;;;;45.57;29.43;;;;;;;-143.90;100.00;58478.06;5039894;28;20621;-74
2021/09/18 03:37:35;;;;;;;47.30;32.20;;;;;;;-143.90;100.00;58478.06;5039994;28;20224;-73
2021/09/18 03:40:06;;;;;;;46.37;29.43;;;;;;;-143.90;100.00;58478.06;5051631;28;20169;-74
2021/09/18 03:42:32;;;;;;;45.50;29.53;;;;;;;-143.90;100.00;58478.06;5051762;28;20180;-74
2021/09/18 03:44:57;;;;;;;46.63;30.97;;;;;;;-143.90;100.00;58478.06;5051852;28;20454;-75
2021/09/18 03:47:23;;;;;;;39.87;30.13;;;;;;;-143.90;100.00;58478.06;5042431;28;20510;-72
2021/09/18 03:49:48;;;;;;;42.73;30.50;;;;;;;-143.90;100.00;58478.06;5032063;28;20647;-71
2021/09/18 03:52:14;;;;;;;45.73;32.77;;;;;;;-143.90;100.00;58478.06;5051697;28;20620;-72
2021/09/18 03:54:39;;;;;;;48.00;32.73;;;;;;;-143.90;100.00;58478.06;5050523;28;20168;-73
2021/09/18 03:57:05;;;;;;;54.00;35.73;;;;;;;-143.90;100.00;58478.06;5048922;28;20189;-72
2021/09/18 03:59:30;;;;;;;54.77;39.30;;;;;;;-143.90;100.00;58478.06;5047573;28;20252;-74
2021/09/18 04:01:56;;;;;;;72.97;41.80;;;;;;;-143.90;100.00;58478.06;5034010;28;20166;-74
2021/09/18 04:04:21;;;;;;;57.23;42.17;;;;;;;-143.90;100.00;58478.06;5050951;28;20655;-72
2021/09/18 04:06:48;;;;;;;65.30;45.47;;;;;;;-143.90;100.00;58478.06;5050968;28;20195;-72
2021/09/18 04:09:14;;;;;;;62.60;41.77;;;;;;;-143.90;100.00;58478.06;5049029;28;20571;-72
2021/09/18 04:11:39;;;;;;;62.97;43.47;;;;;;;-143.90;100.00;58478.06;5048381;28;20934;-71
2021/09/18 04:14:05;;;;;;;73.63;45.47;;;;;;;-143.90;100.00;58478.06;5035462;28;20547;-72
2021/09/18 04:16:30;;;;;;;65.00;46.17;;;;;;;-143.90;100.00;58478.06;5034014;28;20169;-73
2021/09/18 04:18:56;;;;;;;66.77;45.20;;;;;;;-143.90;100.00;58478.06;5051244;28;20161;-72
2021/09/18 04:21:21;;;;;;;72.97;48.47;;;;;;;-143.90;100.00;58478.06;5050785;28;20197;-72
2021/09/18 04:23:47;;;;;;;69.23;49.17;;;;;;;-143.90;100.00;58478.06;5051360;28;20692;-71
2021/09/18 04:26:13;;;;;;;80.97;54.30;;;;;;;-143.90;100.00;58478.06;5051372;28;20254;-72
2021/09/18 04:28:38;;;;;;;79.70;51.67;;;;;;;-143.90;100.00;58478.06;5051882;28;20307;-71
2021/09/18 04:31:04;;;;;;;82.13;51.90;;;;;;;-143.90;100.00;58478.06;5050953;28;20671;-71
2021/09/18 04:33:30;;;;;;;81.57;53.17;;;;;;;-143.90;100.00;58478.06;5050400;28;20196;-72
2021/09/18 04:35:55;;;;;;;76.83;52.10;;;;;;;-143.90;100.00;58478.06;5049708;28;20255;-76
2021/09/18 04:38:21;;;;;;;75.20;54.70;;;;;;;-143.90;100.00;58478.06;5051223;28;20231;-74
2021/09/18 04:40:46;;;;;;;89.07;57.60;;;;;;;-143.90;100.00;58478.06;5040688;28;20249;-74
2021/09/18 04:43:12;;;;;;;83.60;57.00;;;;;;;-143.90;100.00;58478.06;5042775;28;20168;-72
2021/09/18 04:45:37;;;;;;;86.33;57.20;;;;;;;-143.90;100.00;58478.06;5050395;28;20169;-72
2021/09/18 04:48:03;;;;;;;77.20;51.57;;;;;;;-143.90;100.00;58478.06;5050021;28;20177;-72
2021/09/18 04:50:29;;;;;;;69.57;48.50;;;;;;;-143.90;100.00;58478.06;5042325;28;20170;-71
2021/09/18 04:52:55;;;;;;;62.80;40.70;;;;;;;-143.90;100.00;58478.06;5048699;28;20481;-74
2021/09/18 04:55:20;;;;;;;56.47;40.87;;;;;;;-143.90;100.00;58478.06;5044645;28;20424;-75
2021/09/18 04:57:46;;;;;;;57.30;36.30;;;;;;;-143.90;100.00;58478.06;5030655;28;20201;-73
2021/09/18 05:00:11;;;;;;;49.77;36.63;;;;;;;-143.90;100.00;58478.06;5030847;28;20209;-72
2021/09/18 05:02:37;;;;;;;51.20;35.60;;;;;;;-143.90;100.00;58478.06;5037576;28;20153;-70
2021/09/18 05:05:03;;;;;;;50.60;35.27;;;;;;;-143.90;100.00;58478.06;5079920;28;20614;-74
2021/09/18 05:07:28;;;;;;;49.57;31.37;;;;;;;-143.90;100.00;58478.06;5049691;28;20326;-73
2021/09/18 05:09:54;;;;;;;51.30;34.10;;;;;;;-143.90;100.00;58478.06;5049732;28;20176;-73
2021/09/18 05:12:19;;;;;;;50.67;33.93;;;;;;;-143.90;100.00;58478.06;5051186;28;20207;-73
2021/09/18 05:14:45;;;;;;;47.90;35.33;;;;;;;-143.90;100.00;58478.06;5048160;28;20249;-71
2021/09/18 05:17:10;;;;;;;44.73;32.27;;;;;;;-143.90;100.00;58478.06;5062849;28;20627;-73
2021/09/18 05:19:36;;;;;;;51.83;34.60;;;;;;;-143.90;100.00;58478.06;5041296;28;20204;-73
2021/09/18 05:22:01;;;;;;;45.63;35.00;;;;;;;-143.90;100.00;58478.06;5049963;28;20156;-71
2021/09/18 05:24:29;;;;;;;50.80;37.10;;;;;;;-143.90;100.00;58478.06;5049229;28;20618;-72
2021/09/18 05:26:54;;;;;;;47.60;38.87;;;;;;;-143.90;100.00;58478.06;5048267;28;20173;-72
2021/09/18 05:29:20;;;;;;;47.33;34.80;;;;;;;-143.90;100.00;58478.06;5048802;28;20422;-72
2021/09/18 05:31:45;;;;;;;57.07;36.63;;;;;;;-143.90;100.00;58478.06;5045167;28;20172;-72
2021/09/18 05:34:11;;;;;;;57.73;35.93;;;;;;;-143.90;100.00;58478.06;5030047;28;20166;-71
2021/09/18 05:36:36;;;;;;;58.93;37.90;;;;;;;-143.90;100.00;58478.06;5047104;28;20695;-72
2021/09/18 05:39:03;;;;;;;53.40;36.13;;;;;;;-143.90;100.00;58478.06;5042581;28;20173;-70
2021/09/18 05:41:28;;;;;;;48.93;39.60;;;;;;;-143.90;100.00;58478.06;5080953;28;20169;-70
2021/09/18 05:43:54;;;;;;;62.53;41.07;;;;;;;-143.90;100.00;58478.06;5049167;28;20419;-70
2021/09/18 05:46:19;;;;;;;59.23;39.00;;;;;;;-143.90;100.00;58478.06;5048475;28;20179;-72
2021/09/18 05:48:45;;;;;;;61.63;39.50;;;;;;;-143.90;100.00;58478.06;5049535;28;20161;-71
2021/09/18 05:51:10;;;;;;;55.23;41.20;;;;;;;-143.90;100.00;58478.06;5049558;28;20180;-73
2021/09/18 05:53:37;;;;;;;62.33;40.70;;;;;;;-143.90;100.00;58478.06;5049672;28;20187;-73
2021/09/18 05:56:03;;;;;;;55.10;38.70;;;;;;;-143.90;100.00;58478.06;5049534;28;20630;-72
2021/09/18 05:58:28;;;;;;;52.40;38.87;;;;;;;-143.90;100.00;58478.06;5047875;28;20469;-74
2021/09/18 06:00:54;;;;;;;81.53;62.20;;;;;;;-143.90;100.00;58478.06;5045779;28;20404;-73
2021/09/18 06:03:20;;;;;;;76.70;58.70;;;;;;;-143.90;100.00;58478.06;5029974;28;20154;-73
2021/09/18 06:05:45;;;;;;;69.23;50.33;;;;;;;-143.90;100.00;58478.06;5030212;28;20193;-74
2021/09/18 06:08:11;;;;;;;64.57;46.20;;;;;;;-143.90;100.00;58478.06;5029899;28;20245;-72
2021/09/18 06:10:36;;;;;;;58.47;42.27;;;;;;;-143.90;100.00;58478.06;5028506;28;20174;-73
2021/09/18 06:13:02;;;;;;;57.40;40.30;;;;;;;-143.90;100.00;58478.06;5039398;28;20169;-72
2021/09/18 06:15:27;;;;;;;56.87;42.90;;;;;;;-143.90;100.00;58478.06;5049112;28;20179;-75
2021/09/18 06:17:53;;;;;;;55.63;41.23;;;;;;;-143.90;100.00;58478.06;5047227;28;20192;-73
2021/09/18 06:20:18;;;;;;;55.20;40.83;;;;;;;-143.90;100.00;58478.06;5051296;28;20200;-71
2021/09/18 06:22:44;;;;;;;45.93;35.80;;;;;;;-143.90;100.00;58478.06;5047130;28;20212;-69
2021/09/18 06:25:12;;;;;;;44.90;34.90;;;;;;;-143.90;100.00;58478.06;5046236;28;20173;-72
2021/09/18 06:27:39;;;;;;;41.00;31.97;;;;;;;-143.90;100.00;58478.06;5053842;28;20187;-70
2021/09/18 06:30:06;;;;;;;42.10;35.40;;;;;;;-143.90;100.00;58478.06;5067769;28;20497;-71
2021/09/18 06:32:32;;;;;;;47.20;36.13;;;;;;;-143.90;100.00;58478.06;5061113;28;21172;-71
2021/09/18 06:34:57;;;;;;;49.93;32.93;;;;;;;-143.90;100.00;58478.06;5049289;28;20494;-71
2021/09/18 06:37:23;;;;;;;42.87;32.00;;;;;;;-143.90;100.00;58478.06;5052770;28;20228;-70
2021/09/18 06:39:48;;;;;;;38.77;28.83;;;;;;;-143.90;100.00;58478.06;5055593;28;20168;-70
2021/09/18 06:42:13;;;;;;;45.77;29.87;;;;;;;-143.90;100.00;58478.06;5055497;28;20623;-73
2021/09/18 06:44:41;;;;;;;50.90;34.53;;;;;;;-143.90;100.00;58478.06;5052081;28;20187;-72
2021/09/18 06:47:06;;;;;;;47.27;32.53;;;;;;;-143.90;100.00;58478.06;5061650;28;20222;-74
2021/09/18 06:49:32;;;;;;;42.33;30.83;;;;;;;-143.90;100.00;58478.06;5052599;28;20478;-71
2021/09/18 06:51:57;;;;;;;44.60;30.77;;;;;;;-143.90;100.00;58478.06;5052419;28;20200;-70
2021/09/18 06:54:23;;;;;;;36.07;25.63;;;;;;;-143.90;100.00;58478.06;5052310;28;20185;-72
2021/09/18 06:56:48;;;;;;;45.23;27.10;;;;;;;-143.90;100.00;58478.06;5051150;28;20196;-70
2021/09/18 06:59:14;;;;;;;34.00;24.90;;;;;;;-143.90;100.00;58478.06;5040292;28;20188;-73
2021/09/18 07:01:39;;;;;;;30.17;22.47;;;;;;;-143.90;100.00;58478.06;5048482;28;20177;-73
2021/09/18 07:04:05;;;;;;;35.03;23.80;;;;;;;-143.90;100.00;58478.06;5052241;28;20165;-73
2021/09/18 07:06:30;;;;;;;35.60;21.30;;;;;;;-143.90;100.00;58478.06;5052526;28;20223;-72
2021/09/18 07:08:56;;;;;;;35.87;22.77;;;;;;;-143.90;100.00;58478.06;5052103;28;20165;-71
2021/09/18 07:11:21;;;;;;;30.50;21.50;;;;;;;-143.90;100.00;58478.06;5051427;28;20245;-70
2021/09/18 07:13:47;;;;;;;30.97;20.40;;;;;;;-143.90;100.00;58478.06;5049647;28;20165;-73
2021/09/18 07:16:12;;;;;;;29.83;20.90;;;;;;;-143.90;100.00;58478.06;5052312;28;20171;-71
2021/09/18 07:18:38;;;;;;;30.67;22.13;;;;;;;-143.90;100.00;58478.06;5052138;28;20200;-72
2021/09/18 07:21:03;;;;;;;42.43;22.33;;;;;;;-143.90;100.00;58478.06;5048299;28;20451;-70
2021/09/18 07:23:29;;;;;;;33.53;22.30;;;;;;;-143.90;100.00;58478.06;5051996;28;20161;-72
2021/09/18 07:25:54;;;;;;;36.00;21.40;;;;;;;-143.90;100.00;58478.06;5047606;28;20581;-69
2021/09/18 07:28:20;;;;;;;31.20;22.70;;;;;;;-143.90;100.00;58478.06;5050669;28;20617;-73
2021/09/18 07:30:45;;;;;;;29.33;23.23;;;;;;;-143.90;100.00;58478.06;5049974;28;20161;-77
2021/09/18 07:33:11;;;;;;;39.17;24.90;;;;;;;-143.90;100.00;58478.06;5051082;28;20164;-72
2021/09/18 07:35:40;;;;;;;34.77;26.10;;;;;;;-143.90;100.00;58478.06;5051499;28;20590;-75
2021/09/18 07:38:05;;;;;;;35.17;23.27;;;;;;;-143.90;100.00;58478.06;5055746;28;20472;-72
2021/09/18 07:40:35;;;;;;;34.10;25.80;;;;;;;-143.90;100.00;58478.06;5059278;28;20945;-72
2021/09/18 07:43:01;;;;;;;35.03;25.43;;;;;;;-143.90;100.00;58478.06;5044247;28;20679;-74
2021/09/18 07:45:27;;;;;;;35.33;27.87;;;;;;;-143.90;100.00;58478.06;5062374;28;20549;-73
2021/09/18 07:47:52;;;;;;;39.60;29.37;;;;;;;-143.90;100.00;58478.06;5050682;28;20464;-72
2021/09/18 07:50:18;;;;;;;48.57;32.20;;;;;;;-143.90;100.00;58478.06;5051079;28;20511;-74
2021/09/18 07:52:43;;;;;;;34.07;27.10;;;;;;;-143.90;100.00;58478.06;5040609;28;20178;-72
2021/09/18 07:55:10;;;;;;;39.37;26.27;;;;;;;-143.90;100.00;58478.06;5058530;28;20169;-74
2021/09/18 07:57:36;;;;;;;39.70;25.20;;;;;;;-143.90;100.00;58478.06;5050595;28;20211;-70
2021/09/18 08:00:06;;;;;;;36.10;22.33;;;;;;;-143.90;100.00;58478.06;5067394;28;20424;-73
2021/09/18 08:02:32;;;;;;;32.00;18.80;;;;;;;-143.90;100.00;58478.06;5051467;28;20727;-75
2021/09/18 08:04:57;;;;;;;35.00;17.40;;;;;;;-143.90;100.00;58478.06;5056477;28;20501;-71
2021/09/18 08:07:23;;;;;;;24.80;18.97;;;;;;;-143.90;100.00;58478.06;5051997;28;20180;-72
2021/09/18 08:09:52;;;;;;;22.20;17.17;;;;;;;-143.90;100.00;58478.06;5049343;28;20591;-76
2021/09/18 08:12:18;;;;;;;27.30;16.10;;;;;;;-143.90;100.00;58478.06;5040842;28;20189;-71
2021/09/18 08:14:44;;;;;;;28.07;17.30;;;;;;;-143.90;100.00;58478.06;5050614;28;20416;-73
2021/09/18 08:17:09;;;;;;;28.70;19.27;;;;;;;-143.90;100.00;58478.06;5053914;28;20305;-71
2021/09/18 08:19:35;;;;;;;22.57;15.67;;;;;;;-143.90;100.00;58478.06;5064435;28;20185;-70
2021/09/18 08:22:01;;;;;;;22.77;15.70;;;;;;;-143.90;100.00;58478.06;5051891;28;20173;-69
2021/09/18 08:24:26;;;;;;;28.57;17.07;;;;;;;-143.90;100.00;58478.06;5051400;28;20192;-72
2021/09/18 08:26:52;;;;;;;21.60;16.53;;;;;;;-143.90;100.00;58478.06;5054514;28;20164;-71
2021/09/18 08:29:17;;;;;;;25.70;16.73;;;;;;;-143.90;100.00;58478.06;5070659;28;20561;-73
2021/09/18 08:31:43;;;;;;;41.70;17.83;;;;;;;-143.90;100.00;58478.06;5056999;28;20165;-75
2021/09/18 08:34:09;;;;;;;25.87;17.37;;;;;;;-143.90;100.00;58478.06;5048795;28;20218;-79
2021/09/18 08:36:35;;;;;;;23.70;15.97;;;;;;;-143.90;100.00;58478.06;5048462;28;20259;-71
2021/09/18 08:39:00;;;;;;;19.77;14.03;;;;;;;-143.90;100.00;58478.06;5049545;28;20419;-71
2021/09/18 08:41:26;;;;;;;27.63;15.40;;;;;;;-143.90;100.00;58478.06;5050610;28;20161;-74
2021/09/18 08:43:52;;;;;;;17.37;13.10;;;;;;;-143.90;100.00;58478.06;5049568;28;20199;-71
2021/09/18 08:46:18;;;;;;;21.27;13.73;;;;;;;-143.90;100.00;58478.06;5049567;28;20412;-73
2021/09/18 08:48:45;;;;;;;23.20;13.50;;;;;;;-143.90;100.00;58478.06;5050036;28;20223;-74
2021/09/18 08:51:11;;;;;;;25.30;12.47;;;;;;;-143.90;100.00;58478.06;5043795;28;20412;-72
2021/09/18 08:53:37;;;;;;;19.07;12.50;;;;;;;-143.90;100.00;58478.06;5049139;28;20759;-74
2021/09/18 08:56:04;;;;;;;24.23;13.47;;;;;;;-143.90;100.00;58478.06;5048218;28;20501;-75
2021/09/18 08:58:29;;;;;;;18.43;11.37;;;;;;;-143.90;100.00;58478.06;5049294;28;20679;-75
2021/09/18 09:00:59;;;;;;;17.27;11.90;;;;;;;-143.90;100.00;58478.06;5049836;28;20442;-72
2021/09/18 09:03:32;;;;;;;18.60;12.97;;;;;;;-143.90;100.00;58478.06;5038832;28;20169;-73
2021/09/18 09:06:10;;;;;;;20.40;12.50;;;;;;;-143.90;100.00;58478.06;5031432;28;20397;-73
2021/09/18 09:08:38;;;;;;;16.57;10.73;;;;;;;-143.90;100.00;58478.06;5047465;28;20415;-71
2021/09/18 09:11:24;;;;;;;18.57;10.53;;;;;;;-143.90;100.00;58478.06;5044243;28;20404;-74
2021/09/18 09:13:54;;;;;;;16.93;10.80;;;;;;;-143.90;100.00;58478.06;5056881;28;20406;-72
2021/09/18 09:16:20;;;;;;;19.70;9.57;;;;;;;-143.90;100.00;58478.06;5063183;28;20404;-74
2021/09/18 09:18:47;;;;;;;18.43;9.30;;;;;;;-143.90;100.00;58478.06;5047573;28;20852;-72
2021/09/18 09:21:20;;;;;;;26.57;10.57;;;;;;;-143.90;100.00;58478.06;5057221;28;20415;-71
2021/09/18 09:24:04;;;;;;;21.33;10.43;;;;;;;-143.90;100.00;58478.06;5048934;28;20510;-70
2021/09/18 09:26:29;;;;;;;15.73;9.60;;;;;;;-143.90;100.00;58478.06;5080890;28;20407;-71
2021/09/18 09:28:55;;;;;;;19.93;10.40;;;;;;;-143.90;100.00;58478.06;5046176;28;20420;-70
2021/09/18 09:31:28;;;;;;;19.87;10.10;;;;;;;-143.90;100.00;58478.06;5046541;28;20157;-70
2021/09/18 09:34:12;;;;;;;20.40;8.83;;;;;;;-143.90;100.00;58478.06;5047719;28;20412;-71
2021/09/18 09:36:53;;;;;;;12.43;9.00;;;;;;;-143.90;100.00;58478.06;5055754;28;20538;-69
2021/09/18 09:39:21;;;;;;;20.00;8.90;;;;;;;-143.90;100.00;58478.06;5027926;28;20420;-70
2021/09/18 09:41:53;;;;;;;14.90;9.73;;;;;;;-143.90;100.00;58478.06;5028112;28;20431;-73
2021/09/18 09:44:20;;;;;;;14.63;9.13;;;;;;;-143.90;100.00;58478.06;5029590;28;20405;-71
2021/09/18 09:47:03;;;;;;;14.60;9.60;;;;;;;-143.90;100.00;58478.06;5029378;28;20408;-71
2021/09/18 09:49:45;;;;;;;16.50;9.50;;;;;;;-143.90;100.00;58478.06;5053521;28;20796;-71
2021/09/18 09:52:20;;;;;;;19.57;9.00;;;;;;;-143.90;100.00;58478.06;5069275;28;20777;-71
2021/09/18 09:54:46;;;;;;;16.37;9.10;;;;;;;-143.90;100.00;58478.06;5068918;28;20401;-74
2021/09/18 09:57:14;;;;;;;15.63;9.83;;;;;;;-143.90;100.00;58478.06;5048900;28;20467;-73
2021/09/18 09:59:41;;;;;;;16.10;8.73;;;;;;;-143.90;100.00;58478.06;5047925;28;20187;-73
2021/09/18 10:02:09;;;;;;;20.13;12.27;;;;;;;-143.90;100.00;58478.06;5049712;28;20427;-70
2021/09/18 10:04:35;;;;;;;20.20;11.30;;;;;;;-143.90;100.00;58478.06;5049323;28;20788;-73
2021/09/18 10:07:01;;;;;;;17.37;10.80;;;;;;;-143.90;100.00;58478.06;5056746;28;20490;-71
2021/09/18 10:09:27;;;;;;;14.80;10.00;;;;;;;-143.90;100.00;58478.06;5049742;28;20483;-69
2021/09/18 10:11:54;;;;;;;15.77;10.70;;;;;;;-143.90;100.00;58478.06;5053137;28;20673;-71
2021/09/18 10:14:24;;;;;;;14.63;8.43;;;;;;;-143.90;100.00;58478.06;5052505;28;20192;-72
2021/09/18 10:16:53;;;;;;;17.27;8.77;;;;;;;-143.90;100.00;58478.06;5051291;28;20481;-71
2021/09/18 10:19:29;;;;;;;16.53;9.90;;;;;;;-143.90;100.00;58478.06;5051642;28;20534;-74
2021/09/18 10:24:39;;;;;;;16.53;8.53;;;;;;;-143.90;100.00;58478.06;5053128;28;20461;-70
2021/09/18 10:27:32;;;;;;;19.80;8.40;;;;;;;-143.90;100.00;58478.06;5050934;28;20435;-72
2021/09/18 10:30:00;;;;;;;15.90;9.20;;;;;;;-143.90;100.00;58478.06;5050051;28;20594;-72
2021/09/18 10:32:25;;;;;;;16.23;8.43;;;;;;;-143.90;100.00;58478.06;5052141;28;20415;-75
2021/09/18 10:35:14;;;;;;;18.63;9.20;;;;;;;-143.90;100.00;58478.06;5052678;28;20411;-73
2021/09/18 10:37:40;;;;;;;15.20;8.87;;;;;;;-143.90;100.00;58478.06;5052527;28;20197;-71
2021/09/18 10:40:12;;;;;;;17.90;8.93;;;;;;;-143.90;100.00;58478.06;5052204;28;20462;-69
2021/09/18 10:42:42;;;;;;;16.90;9.30;;;;;;;-143.90;100.00;58478.06;5051776;28;20486;-70
2021/09/18 10:45:11;;;;;;;14.83;7.50;;;;;;;-143.90;100.00;58478.06;5054830;28;20412;-72
2021/09/18 10:47:38;;;;;;;16.80;7.60;;;;;;;-143.90;100.00;58478.06;5052817;28;20404;-72
2021/09/18 10:50:25;;;;;;;16.60;8.40;;;;;;;-143.90;100.00;58478.06;5052222;28;20729;-74
2021/09/18 10:53:15;;;;;;;10.27;6.50;;;;;;;-143.90;100.00;58478.06;5052290;28;20438;-73
2021/09/18 10:56:01;;;;;;;15.03;8.03;;;;;;;-143.90;100.00;58478.06;5051118;28;20412;-75
2021/09/18 10:58:27;;;;;;;16.63;6.30;;;;;;;-143.90;100.00;58478.06;5052218;28;20474;-73